sensor_id;sensor_type;location;lat;lon;timestamp;pressure;altitude;pressure_sealevel;temperature;humidity
9277;BME280;4676;42.678;23.244;2023-03-31T00:00:51;94059.25;;;8.47;71.40
9277;BME280;4676;42.678;23.244;2023-03-31T00:03:22;94053.41;;;8.45;74.48
9277;BME280;4676;42.678;23.244;2023-03-31T00:05:49;94054.16;;;8.49;72.77
9277;BME280;4676;42.678;23.244;2023-03-31T00:08:20;94061.63;;;8.52;72.65
9277;BME280;4676;42.678;23.244;2023-03-31T00:10:47;94050.34;;;8.62;72.67
9277;BME280;4676;42.678;23.244;2023-03-31T00:13:15;94052.06;;;8.62;73.76
9277;BME280;4676;42.678;23.244;2023-03-31T00:15:42;94040.94;;;8.66;73.84
9277;BME280;4676;42.678;23.244;2023-03-31T00:18:10;94046.19;;;8.61;73.98
9277;BME280;4676;42.678;23.244;2023-03-31T00:20:37;94053.44;;;8.70;70.17
9277;BME280;4676;42.678;23.244;2023-03-31T00:23:03;94049.44;;;8.65;71.76
9277;BME280;4676;42.678;23.244;2023-03-31T00:25:31;94048.81;;;8.58;73.09
9277;BME280;4676;42.678;23.244;2023-03-31T00:27:57;94034.16;;;8.68;72.59
9277;BME280;4676;42.678;23.244;2023-03-31T00:30:26;94047.72;;;8.65;71.90
9277;BME280;4676;42.678;23.244;2023-03-31T00:32:52;94045.13;;;8.67;72.39
9277;BME280;4676;42.678;23.244;2023-03-31T00:35:19;94037.63;;;8.65;72.30
9277;BME280;4676;42.678;23.244;2023-03-31T00:37:46;94045.56;;;8.79;72.79
9277;BME280;4676;42.678;23.244;2023-03-31T00:40:13;94041.53;;;8.74;71.45
9277;BME280;4676;42.678;23.244;2023-03-31T00:42:40;94028.25;;;8.69;71.92
9277;BME280;4676;42.678;23.244;2023-03-31T00:45:26;94037.41;;;8.71;72.96
9277;BME280;4676;42.678;23.244;2023-03-31T00:47:58;94026.38;;;8.74;75.63
9277;BME280;4676;42.678;23.244;2023-03-31T00:50:30;94023.94;;;8.71;76.63
9277;BME280;4676;42.678;23.244;2023-03-31T00:52:59;94023.38;;;8.87;73.70
9277;BME280;4676;42.678;23.244;2023-03-31T00:55:32;94019.81;;;8.93;72.87
9277;BME280;4676;42.678;23.244;2023-03-31T00:58:00;94007.63;;;9.04;70.15
9277;BME280;4676;42.678;23.244;2023-03-31T01:00:30;93987.72;;;8.95;67.62
9277;BME280;4676;42.678;23.244;2023-03-31T01:02:58;94006.03;;;9.25;71.24
9277;BME280;4676;42.678;23.244;2023-03-31T01:05:31;94001.09;;;9.22;69.46
9277;BME280;4676;42.678;23.244;2023-03-31T01:08:00;94011.41;;;9.16;70.48
9277;BME280;4676;42.678;23.244;2023-03-31T01:10:28;93999.88;;;9.09;70.43
9277;BME280;4676;42.678;23.244;2023-03-31T01:13:03;93955.41;;;8.80;70.32
9277;BME280;4676;42.678;23.244;2023-03-31T01:15:31;93999.19;;;9.27;72.37
9277;BME280;4676;42.678;23.244;2023-03-31T01:17:58;93999.44;;;9.21;71.89
9277;BME280;4676;42.678;23.244;2023-03-31T01:20:33;94010.97;;;9.28;67.53
9277;BME280;4676;42.678;23.244;2023-03-31T01:23:32;93984.09;;;9.02;68.46
9277;BME280;4676;42.678;23.244;2023-03-31T01:29:26;94009.06;;;9.11;72.42
9277;BME280;4676;42.678;23.244;2023-03-31T01:32:30;94010.56;;;9.15;71.36
9277;BME280;4676;42.678;23.244;2023-03-31T01:38:39;94020.69;;;9.15;69.85
9277;BME280;4676;42.678;23.244;2023-03-31T01:41:33;94021.13;;;9.03;72.02
9277;BME280;4676;42.678;23.244;2023-03-31T01:44:09;94026.03;;;9.08;75.04
9277;BME280;4676;42.678;23.244;2023-03-31T01:46:47;94025.47;;;8.99;77.90
9277;BME280;4676;42.678;23.244;2023-03-31T01:49:22;94026.19;;;9.03;78.03
9277;BME280;4676;42.678;23.244;2023-03-31T01:51:56;94031.38;;;9.00;77.79
9277;BME280;4676;42.678;23.244;2023-03-31T01:54:29;94038.34;;;8.93;79.25
9277;BME280;4676;42.678;23.244;2023-03-31T01:57:08;94041.50;;;8.98;77.83
9277;BME280;4676;42.678;23.244;2023-03-31T01:59:42;94043.41;;;8.93;77.16
9277;BME280;4676;42.678;23.244;2023-03-31T02:02:15;94048.16;;;9.01;76.28
9277;BME280;4676;42.678;23.244;2023-03-31T02:04:45;94044.16;;;9.19;75.60
9277;BME280;4676;42.678;23.244;2023-03-31T02:07:16;94052.66;;;9.18;74.95
9277;BME280;4676;42.678;23.244;2023-03-31T02:09:48;94050.28;;;9.13;74.42
9277;BME280;4676;42.678;23.244;2023-03-31T02:12:18;94036.38;;;9.25;65.82
9277;BME280;4676;42.678;23.244;2023-03-31T02:14:49;94065.38;;;10.06;59.59
9277;BME280;4676;42.678;23.244;2023-03-31T02:17:20;94073.50;;;10.36;58.85
9277;BME280;4676;42.678;23.244;2023-03-31T02:19:56;94078.59;;;10.56;59.58
9277;BME280;4676;42.678;23.244;2023-03-31T02:22:24;94089.66;;;10.75;60.06
9277;BME280;4676;42.678;23.244;2023-03-31T02:24:53;94089.78;;;10.92;62.73
9277;BME280;4676;42.678;23.244;2023-03-31T02:27:24;94094.03;;;10.92;64.28
9277;BME280;4676;42.678;23.244;2023-03-31T02:29:52;94096.38;;;10.96;63.39
9277;BME280;4676;42.678;23.244;2023-03-31T02:32:21;94094.19;;;10.87;71.17
9277;BME280;4676;42.678;23.244;2023-03-31T02:34:49;94093.88;;;10.75;74.99
9277;BME280;4676;42.678;23.244;2023-03-31T02:37:16;94105.47;;;10.60;77.83
9277;BME280;4676;42.678;23.244;2023-03-31T02:39:44;94107.59;;;10.49;82.70
9277;BME280;4676;42.678;23.244;2023-03-31T02:42:13;94069.09;;;10.19;88.89
9277;BME280;4676;42.678;23.244;2023-03-31T02:44:41;94091.31;;;10.11;89.57
9277;BME280;4676;42.678;23.244;2023-03-31T02:47:11;94097.63;;;10.01;96.86
9277;BME280;4676;42.678;23.244;2023-03-31T02:49:40;94077.94;;;9.86;100.00
9277;BME280;4676;42.678;23.244;2023-03-31T02:52:32;94076.00;;;9.71;100.00
9277;BME280;4676;42.678;23.244;2023-03-31T02:55:14;94074.66;;;9.61;100.00
9277;BME280;4676;42.678;23.244;2023-03-31T03:01:06;94047.16;;;9.53;100.00
9277;BME280;4676;42.678;23.244;2023-03-31T03:03:41;94048.06;;;9.50;100.00
9277;BME280;4676;42.678;23.244;2023-03-31T03:06:18;94038.59;;;9.56;97.86
9277;BME280;4676;42.678;23.244;2023-03-31T03:09:01;94032.13;;;9.48;98.51
9277;BME280;4676;42.678;23.244;2023-03-31T03:11:37;94032.97;;;9.49;95.53
9277;BME280;4676;42.678;23.244;2023-03-31T03:14:12;94022.88;;;9.47;94.68
9277;BME280;4676;42.678;23.244;2023-03-31T03:16:47;93955.84;;;9.14;95.13
9277;BME280;4676;42.678;23.244;2023-03-31T03:19:19;94020.03;;;9.57;95.23
9277;BME280;4676;42.678;23.244;2023-03-31T03:21:46;94015.19;;;9.72;91.42
9277;BME280;4676;42.678;23.244;2023-03-31T03:24:14;94023.75;;;9.70;90.50
9277;BME280;4676;42.678;23.244;2023-03-31T03:26:41;94024.28;;;9.78;89.92
9277;BME280;4676;42.678;23.244;2023-03-31T03:29:09;94017.41;;;9.81;88.13
9277;BME280;4676;42.678;23.244;2023-03-31T03:31:37;93979.44;;;9.60;89.00
9277;BME280;4676;42.678;23.244;2023-03-31T03:34:05;94020.69;;;9.83;88.93
9277;BME280;4676;42.678;23.244;2023-03-31T03:36:34;94005.31;;;9.88;89.22
9277;BME280;4676;42.678;23.244;2023-03-31T03:39:00;94014.50;;;9.90;88.23
9277;BME280;4676;42.678;23.244;2023-03-31T03:41:28;94010.00;;;9.97;87.20
9277;BME280;4676;42.678;23.244;2023-03-31T03:43:55;94006.66;;;9.96;88.46
9277;BME280;4676;42.678;23.244;2023-03-31T03:46:22;94007.47;;;9.75;92.99
9277;BME280;4676;42.678;23.244;2023-03-31T03:48:48;93995.03;;;9.71;92.49
9277;BME280;4676;42.678;23.244;2023-03-31T03:51:16;94001.25;;;9.62;92.04
9277;BME280;4676;42.678;23.244;2023-03-31T03:53:43;93997.97;;;9.60;93.70
9277;BME280;4676;42.678;23.244;2023-03-31T03:56:10;93994.41;;;9.64;91.98
9277;BME280;4676;42.678;23.244;2023-03-31T03:58:36;94007.06;;;9.64;92.00
9277;BME280;4676;42.678;23.244;2023-03-31T04:01:03;94009.59;;;9.64;91.93
9277;BME280;4676;42.678;23.244;2023-03-31T04:03:30;94012.19;;;9.63;92.38
9277;BME280;4676;42.678;23.244;2023-03-31T04:05:57;94013.66;;;9.68;91.13
9277;BME280;4676;42.678;23.244;2023-03-31T04:08:25;94015.19;;;9.72;89.84
9277;BME280;4676;42.678;23.244;2023-03-31T04:10:51;94016.91;;;9.72;88.57
9277;BME280;4676;42.678;23.244;2023-03-31T04:13:18;94020.13;;;9.75;88.83
9277;BME280;4676;42.678;23.244;2023-03-31T04:15:45;94020.22;;;9.74;90.07
9277;BME280;4676;42.678;23.244;2023-03-31T04:18:12;94006.16;;;9.67;88.95
9277;BME280;4676;42.678;23.244;2023-03-31T04:20:43;94020.09;;;9.77;89.67
9277;BME280;4676;42.678;23.244;2023-03-31T04:23:10;93998.69;;;9.64;89.31
9277;BME280;4676;42.678;23.244;2023-03-31T04:25:40;93992.09;;;9.60;88.79
9277;BME280;4676;42.678;23.244;2023-03-31T04:28:10;93980.44;;;9.56;88.70
9277;BME280;4676;42.678;23.244;2023-03-31T04:30:39;94005.34;;;9.65;90.28
9277;BME280;4676;42.678;23.244;2023-03-31T04:33:05;93990.88;;;9.68;88.36
9277;BME280;4676;42.678;23.244;2023-03-31T04:35:32;94011.69;;;9.76;89.81
9277;BME280;4676;42.678;23.244;2023-03-31T04:38:14;94008.72;;;9.87;90.00
9277;BME280;4676;42.678;23.244;2023-03-31T04:40:45;94005.13;;;9.92;87.92
9277;BME280;4676;42.678;23.244;2023-03-31T04:43:12;93999.72;;;10.01;88.62
9277;BME280;4676;42.678;23.244;2023-03-31T04:45:39;93993.13;;;9.97;87.72
9277;BME280;4676;42.678;23.244;2023-03-31T04:48:06;94012.56;;;9.97;87.00
9277;BME280;4676;42.678;23.244;2023-03-31T04:50:33;94000.78;;;9.96;86.54
9277;BME280;4676;42.678;23.244;2023-03-31T04:53:00;93974.66;;;9.95;85.78
9277;BME280;4676;42.678;23.244;2023-03-31T04:55:27;93986.69;;;10.11;84.26
9277;BME280;4676;42.678;23.244;2023-03-31T04:57:55;93992.25;;;10.20;81.78
9277;BME280;4676;42.678;23.244;2023-03-31T05:00:22;93985.16;;;10.28;78.52
9277;BME280;4676;42.678;23.244;2023-03-31T05:02:49;93981.56;;;10.34;79.89
9277;BME280;4676;42.678;23.244;2023-03-31T05:05:16;93979.22;;;10.29;80.64
9277;BME280;4676;42.678;23.244;2023-03-31T05:07:43;93980.88;;;10.30;77.29
9277;BME280;4676;42.678;23.244;2023-03-31T05:10:10;93971.00;;;10.44;72.88
9277;BME280;4676;42.678;23.244;2023-03-31T05:12:37;93970.03;;;10.47;73.67
9277;BME280;4676;42.678;23.244;2023-03-31T05:15:06;93961.09;;;10.59;71.84
9277;BME280;4676;42.678;23.244;2023-03-31T05:17:34;93956.50;;;10.67;69.85
9277;BME280;4676;42.678;23.244;2023-03-31T05:20:03;93966.66;;;10.67;70.84
9277;BME280;4676;42.678;23.244;2023-03-31T05:22:33;93967.03;;;10.78;70.08
9277;BME280;4676;42.678;23.244;2023-03-31T05:25:00;93958.25;;;10.85;68.34
9277;BME280;4676;42.678;23.244;2023-03-31T05:27:27;93955.53;;;10.89;68.18
9277;BME280;4676;42.678;23.244;2023-03-31T05:29:54;93947.28;;;11.05;68.82
9277;BME280;4676;42.678;23.244;2023-03-31T05:32:22;93959.59;;;11.12;66.96
9277;BME280;4676;42.678;23.244;2023-03-31T05:34:48;93945.41;;;11.27;67.15
9277;BME280;4676;42.678;23.244;2023-03-31T05:37:17;93950.63;;;11.42;65.76
9277;BME280;4676;42.678;23.244;2023-03-31T05:39:43;93961.03;;;11.55;63.96
9277;BME280;4676;42.678;23.244;2023-03-31T05:42:10;93950.13;;;11.72;63.90
9277;BME280;4676;42.678;23.244;2023-03-31T05:44:37;93944.94;;;11.92;62.42
9277;BME280;4676;42.678;23.244;2023-03-31T05:47:04;93949.44;;;12.04;63.28
9277;BME280;4676;42.678;23.244;2023-03-31T05:49:32;93938.91;;;12.12;62.77
9277;BME280;4676;42.678;23.244;2023-03-31T05:51:59;93953.88;;;12.35;61.97
9277;BME280;4676;42.678;23.244;2023-03-31T05:54:26;93950.09;;;12.42;61.46
9277;BME280;4676;42.678;23.244;2023-03-31T05:56:53;93964.63;;;12.40;58.30
9277;BME280;4676;42.678;23.244;2023-03-31T05:59:19;93968.97;;;12.38;59.71
9277;BME280;4676;42.678;23.244;2023-03-31T06:01:46;93958.78;;;12.21;59.91
9277;BME280;4676;42.678;23.244;2023-03-31T06:04:13;93976.94;;;12.13;60.23
9277;BME280;4676;42.678;23.244;2023-03-31T06:06:41;93968.31;;;11.98;60.27
9277;BME280;4676;42.678;23.244;2023-03-31T06:09:09;93963.81;;;11.86;59.96
9277;BME280;4676;42.678;23.244;2023-03-31T06:11:36;93974.41;;;11.77;60.35
9277;BME280;4676;42.678;23.244;2023-03-31T06:14:04;93975.44;;;11.73;60.26
9277;BME280;4676;42.678;23.244;2023-03-31T06:16:30;93954.41;;;11.71;61.94
9277;BME280;4676;42.678;23.244;2023-03-31T06:18:57;93968.91;;;11.68;61.33
9277;BME280;4676;42.678;23.244;2023-03-31T06:21:24;93968.91;;;11.68;59.39
9277;BME280;4676;42.678;23.244;2023-03-31T06:23:52;93968.81;;;11.69;62.19
9277;BME280;4676;42.678;23.244;2023-03-31T06:26:20;93966.72;;;11.79;61.12
9277;BME280;4676;42.678;23.244;2023-03-31T06:28:48;93915.84;;;11.44;61.18
9277;BME280;4676;42.678;23.244;2023-03-31T06:31:17;93967.38;;;11.82;59.76
9277;BME280;4676;42.678;23.244;2023-03-31T06:33:45;93963.75;;;11.88;60.00
9277;BME280;4676;42.678;23.244;2023-03-31T06:36:14;93965.53;;;11.86;60.33
9277;BME280;4676;42.678;23.244;2023-03-31T06:38:42;93969.97;;;11.99;60.49
9277;BME280;4676;42.678;23.244;2023-03-31T06:41:12;93972.38;;;12.02;61.45
9277;BME280;4676;42.678;23.244;2023-03-31T06:43:39;93965.13;;;11.95;60.92
9277;BME280;4676;42.678;23.244;2023-03-31T06:46:06;93970.66;;;12.03;60.69
9277;BME280;4676;42.678;23.244;2023-03-31T06:48:33;93969.53;;;12.09;61.77
9277;BME280;4676;42.678;23.244;2023-03-31T06:51:01;93971.03;;;12.13;61.78
9277;BME280;4676;42.678;23.244;2023-03-31T06:53:29;93981.00;;;12.17;62.43
9277;BME280;4676;42.678;23.244;2023-03-31T06:55:56;93977.84;;;12.29;62.43
9277;BME280;4676;42.678;23.244;2023-03-31T06:58:24;93976.28;;;12.44;61.71
9277;BME280;4676;42.678;23.244;2023-03-31T07:00:51;93976.44;;;12.41;61.19
9277;BME280;4676;42.678;23.244;2023-03-31T07:03:18;93953.25;;;12.30;61.22
9277;BME280;4676;42.678;23.244;2023-03-31T07:05:48;93951.69;;;12.44;62.16
9277;BME280;4676;42.678;23.244;2023-03-31T07:08:15;93939.66;;;12.48;59.97
9277;BME280;4676;42.678;23.244;2023-03-31T07:10:43;93892.75;;;12.53;61.82
9277;BME280;4676;42.678;23.244;2023-03-31T07:13:11;93919.50;;;12.93;61.01
9277;BME280;4676;42.678;23.244;2023-03-31T07:15:40;93915.06;;;13.14;60.45
9277;BME280;4676;42.678;23.244;2023-03-31T07:18:07;93921.78;;;13.31;59.66
9277;BME280;4676;42.678;23.244;2023-03-31T07:20:34;93900.78;;;13.27;58.25
9277;BME280;4676;42.678;23.244;2023-03-31T07:23:03;93908.66;;;13.54;59.00
9277;BME280;4676;42.678;23.244;2023-03-31T07:25:31;93915.72;;;13.49;58.56
9277;BME280;4676;42.678;23.244;2023-03-31T07:28:12;93907.66;;;13.57;59.63
9277;BME280;4676;42.678;23.244;2023-03-31T07:30:40;93923.03;;;13.71;58.01
9277;BME280;4676;42.678;23.244;2023-03-31T07:33:07;93922.44;;;13.81;57.79
9277;BME280;4676;42.678;23.244;2023-03-31T07:35:37;93925.69;;;13.83;57.01
9277;BME280;4676;42.678;23.244;2023-03-31T07:38:03;93922.50;;;13.95;56.78
9277;BME280;4676;42.678;23.244;2023-03-31T07:40:30;93908.06;;;14.10;58.04
9277;BME280;4676;42.678;23.244;2023-03-31T07:42:57;93920.22;;;14.21;57.67
9277;BME280;4676;42.678;23.244;2023-03-31T07:45:25;93914.06;;;14.09;56.35
9277;BME280;4676;42.678;23.244;2023-03-31T07:47:53;93915.44;;;14.15;57.41
9277;BME280;4676;42.678;23.244;2023-03-31T07:50:20;93916.44;;;14.12;55.93
9277;BME280;4676;42.678;23.244;2023-03-31T07:52:49;93911.75;;;14.20;56.09
9277;BME280;4676;42.678;23.244;2023-03-31T07:55:16;93916.53;;;14.40;55.78
9277;BME280;4676;42.678;23.244;2023-03-31T07:57:44;93923.19;;;14.43;56.20
9277;BME280;4676;42.678;23.244;2023-03-31T08:00:13;93922.22;;;14.45;56.18
9277;BME280;4676;42.678;23.244;2023-03-31T08:02:41;93919.03;;;14.26;55.58
9277;BME280;4676;42.678;23.244;2023-03-31T08:05:10;93916.38;;;14.43;54.84
9277;BME280;4676;42.678;23.244;2023-03-31T08:07:39;93907.47;;;14.65;54.25
9277;BME280;4676;42.678;23.244;2023-03-31T08:10:10;93910.00;;;14.50;55.20
9277;BME280;4676;42.678;23.244;2023-03-31T08:12:37;93905.19;;;14.46;54.54
9277;BME280;4676;42.678;23.244;2023-03-31T08:15:05;93892.44;;;14.46;56.04
9277;BME280;4676;42.678;23.244;2023-03-31T08:17:32;93900.09;;;14.46;55.01
9277;BME280;4676;42.678;23.244;2023-03-31T08:19:59;93898.81;;;14.39;56.41
9277;BME280;4676;42.678;23.244;2023-03-31T08:22:27;93889.25;;;14.27;56.22
9277;BME280;4676;42.678;23.244;2023-03-31T08:24:54;93871.88;;;14.33;57.74
9277;BME280;4676;42.678;23.244;2023-03-31T08:27:20;93895.59;;;14.49;54.29
9277;BME280;4676;42.678;23.244;2023-03-31T08:29:47;93893.84;;;14.36;54.36
9277;BME280;4676;42.678;23.244;2023-03-31T08:32:14;93881.75;;;14.54;57.35
9277;BME280;4676;42.678;23.244;2023-03-31T08:34:41;93892.63;;;14.71;55.49
9277;BME280;4676;42.678;23.244;2023-03-31T08:37:08;93891.97;;;14.82;56.37
9277;BME280;4676;42.678;23.244;2023-03-31T08:39:36;93898.72;;;14.69;53.93
9277;BME280;4676;42.678;23.244;2023-03-31T08:42:06;93898.53;;;14.58;54.77
9277;BME280;4676;42.678;23.244;2023-03-31T08:44:38;93901.00;;;14.59;53.87
9277;BME280;4676;42.678;23.244;2023-03-31T08:47:13;93898.44;;;14.45;54.17
9277;BME280;4676;42.678;23.244;2023-03-31T08:49:44;93899.59;;;14.39;54.03
9277;BME280;4676;42.678;23.244;2023-03-31T08:52:14;93887.16;;;14.63;54.61
9277;BME280;4676;42.678;23.244;2023-03-31T08:54:46;93880.88;;;14.97;54.87
9277;BME280;4676;42.678;23.244;2023-03-31T08:57:17;93879.47;;;15.34;53.85
9277;BME280;4676;42.678;23.244;2023-03-31T08:59:45;93876.59;;;15.53;50.99
9277;BME280;4676;42.678;23.244;2023-03-31T09:02:19;93869.47;;;15.84;51.90
9277;BME280;4676;42.678;23.244;2023-03-31T09:05:00;93847.19;;;15.86;51.02
9277;BME280;4676;42.678;23.244;2023-03-31T09:07:38;93874.22;;;16.16;50.02
9277;BME280;4676;42.678;23.244;2023-03-31T09:10:22;93870.00;;;16.02;50.01
9277;BME280;4676;42.678;23.244;2023-03-31T09:12:56;93859.66;;;15.91;49.24
9277;BME280;4676;42.678;23.244;2023-03-31T09:15:28;93856.53;;;15.73;50.67
9277;BME280;4676;42.678;23.244;2023-03-31T09:18:09;93858.31;;;15.59;50.18
9277;BME280;4676;42.678;23.244;2023-03-31T09:20:43;93863.75;;;15.54;51.16
9277;BME280;4676;42.678;23.244;2023-03-31T09:23:21;93860.72;;;15.47;51.03
9277;BME280;4676;42.678;23.244;2023-03-31T09:25:52;93869.38;;;15.59;50.81
9277;BME280;4676;42.678;23.244;2023-03-31T09:28:21;93866.09;;;15.57;49.70
9277;BME280;4676;42.678;23.244;2023-03-31T09:30:51;93861.19;;;15.54;50.30
9277;BME280;4676;42.678;23.244;2023-03-31T09:33:25;93866.06;;;15.71;50.38
9277;BME280;4676;42.678;23.244;2023-03-31T09:35:56;93864.75;;;15.78;51.10
9277;BME280;4676;42.678;23.244;2023-03-31T09:38:23;93861.50;;;15.62;50.66
9277;BME280;4676;42.678;23.244;2023-03-31T09:40:55;93873.28;;;15.65;50.20
9277;BME280;4676;42.678;23.244;2023-03-31T09:43:23;93868.25;;;15.63;49.92
9277;BME280;4676;42.678;23.244;2023-03-31T09:45:52;93856.59;;;15.45;49.78
9277;BME280;4676;42.678;23.244;2023-03-31T09:48:20;93853.94;;;15.61;50.98
9277;BME280;4676;42.678;23.244;2023-03-31T09:50:52;93845.81;;;15.68;50.39
9277;BME280;4676;42.678;23.244;2023-03-31T09:53:26;93831.72;;;15.75;48.61
9277;BME280;4676;42.678;23.244;2023-03-31T09:56:02;93842.84;;;15.74;49.07
9277;BME280;4676;42.678;23.244;2023-03-31T09:58:30;93835.81;;;15.78;48.60
9277;BME280;4676;42.678;23.244;2023-03-31T10:01:02;93835.72;;;15.79;49.40
9277;BME280;4676;42.678;23.244;2023-03-31T10:03:31;93836.03;;;15.87;48.54
9277;BME280;4676;42.678;23.244;2023-03-31T10:06:02;93825.50;;;15.79;49.33
9277;BME280;4676;42.678;23.244;2023-03-31T10:08:37;93818.97;;;15.88;47.93
9277;BME280;4676;42.678;23.244;2023-03-31T10:11:09;93805.97;;;15.78;48.14
9277;BME280;4676;42.678;23.244;2023-03-31T10:13:43;93810.88;;;15.81;49.49
9277;BME280;4676;42.678;23.244;2023-03-31T10:16:13;93813.97;;;15.86;48.52
9277;BME280;4676;42.678;23.244;2023-03-31T10:18:41;93806.41;;;15.97;48.96
9277;BME280;4676;42.678;23.244;2023-03-31T10:21:19;93812.94;;;16.02;48.23
9277;BME280;4676;42.678;23.244;2023-03-31T10:23:47;93805.41;;;16.13;49.09
9277;BME280;4676;42.678;23.244;2023-03-31T10:26:17;93809.41;;;16.17;49.37
9277;BME280;4676;42.678;23.244;2023-03-31T10:28:47;93800.78;;;16.05;47.81
9277;BME280;4676;42.678;23.244;2023-03-31T10:31:14;93802.03;;;15.99;48.95
9277;BME280;4676;42.678;23.244;2023-03-31T10:33:44;93794.25;;;16.01;47.82
9277;BME280;4676;42.678;23.244;2023-03-31T10:36:18;93793.53;;;15.99;48.07
9277;BME280;4676;42.678;23.244;2023-03-31T10:38:47;93799.88;;;16.06;47.97
9277;BME280;4676;42.678;23.244;2023-03-31T10:41:19;93796.19;;;16.23;48.12
9277;BME280;4676;42.678;23.244;2023-03-31T10:43:49;93792.13;;;16.08;47.53
9277;BME280;4676;42.678;23.244;2023-03-31T10:46:16;93789.56;;;16.08;48.26
9277;BME280;4676;42.678;23.244;2023-03-31T10:48:44;93784.88;;;16.14;47.82
9277;BME280;4676;42.678;23.244;2023-03-31T10:51:14;93783.13;;;16.15;48.50
9277;BME280;4676;42.678;23.244;2023-03-31T10:53:43;93775.63;;;15.99;47.50
9277;BME280;4676;42.678;23.244;2023-03-31T10:56:36;93765.59;;;15.83;47.92
9277;BME280;4676;42.678;23.244;2023-03-31T10:59:23;93772.22;;;15.73;48.69
9277;BME280;4676;42.678;23.244;2023-03-31T11:02:05;93765.78;;;15.80;49.02
9277;BME280;4676;42.678;23.244;2023-03-31T11:05:02;93774.63;;;16.02;49.28
9277;BME280;4676;42.678;23.244;2023-03-31T11:07:44;93764.00;;;16.20;48.72
9277;BME280;4676;42.678;23.244;2023-03-31T11:13:17;93760.81;;;16.29;48.68
9277;BME280;4676;42.678;23.244;2023-03-31T11:15:53;93760.94;;;16.28;49.03
9277;BME280;4676;42.678;23.244;2023-03-31T11:18:50;93765.22;;;16.02;47.85
9277;BME280;4676;42.678;23.244;2023-03-31T11:21:23;93753.88;;;15.93;48.33
9277;BME280;4676;42.678;23.244;2023-03-31T11:24:02;93749.06;;;15.89;47.97
9277;BME280;4676;42.678;23.244;2023-03-31T11:26:38;93748.22;;;15.88;47.92
9277;BME280;4676;42.678;23.244;2023-03-31T11:29:20;93738.09;;;15.87;47.84
9277;BME280;4676;42.678;23.244;2023-03-31T11:31:51;93726.06;;;15.89;47.60
9277;BME280;4676;42.678;23.244;2023-03-31T11:34:40;93732.28;;;15.85;48.91
9277;BME280;4676;42.678;23.244;2023-03-31T11:37:20;93732.56;;;15.80;49.78
9277;BME280;4676;42.678;23.244;2023-03-31T11:40:08;93729.03;;;15.83;50.43
9277;BME280;4676;42.678;23.244;2023-03-31T11:42:46;93726.63;;;15.55;51.41
9277;BME280;4676;42.678;23.244;2023-03-31T11:45:19;93715.31;;;15.32;50.94
9277;BME280;4676;42.678;23.244;2023-03-31T11:47:50;93714.34;;;15.20;51.82
9277;BME280;4676;42.678;23.244;2023-03-31T11:50:21;93717.34;;;15.27;52.31
9277;BME280;4676;42.678;23.244;2023-03-31T11:52:55;93708.97;;;15.52;51.72
9277;BME280;4676;42.678;23.244;2023-03-31T11:55:25;93703.66;;;15.55;51.65
9277;BME280;4676;42.678;23.244;2023-03-31T11:58:00;93698.19;;;15.46;50.77
9277;BME280;4676;42.678;23.244;2023-03-31T12:00:30;93685.50;;;15.32;51.64
9277;BME280;4676;42.678;23.244;2023-03-31T12:03:03;93691.50;;;15.19;51.45
9277;BME280;4676;42.678;23.244;2023-03-31T12:05:36;93683.97;;;15.30;50.96
9277;BME280;4676;42.678;23.244;2023-03-31T12:08:05;93683.88;;;15.44;51.82
9277;BME280;4676;42.678;23.244;2023-03-31T12:10:35;93678.38;;;15.37;50.39
9277;BME280;4676;42.678;23.244;2023-03-31T12:13:23;93679.28;;;15.36;51.15
9277;BME280;4676;42.678;23.244;2023-03-31T12:15:59;93680.47;;;15.31;50.76
9277;BME280;4676;42.678;23.244;2023-03-31T12:18:31;93680.66;;;15.28;51.26
9277;BME280;4676;42.678;23.244;2023-03-31T12:21:02;93685.91;;;15.26;51.73
9277;BME280;4676;42.678;23.244;2023-03-31T12:23:34;93678.88;;;15.42;51.67
9277;BME280;4676;42.678;23.244;2023-03-31T12:26:07;93673.44;;;15.34;50.86
9277;BME280;4676;42.678;23.244;2023-03-31T12:28:40;93660.16;;;15.29;50.89
9277;BME280;4676;42.678;23.244;2023-03-31T12:31:14;93665.06;;;15.45;51.53
9277;BME280;4676;42.678;23.244;2023-03-31T12:33:46;93663.59;;;15.68;51.25
9277;BME280;4676;42.678;23.244;2023-03-31T12:36:25;93655.59;;;15.97;50.91
9277;BME280;4676;42.678;23.244;2023-03-31T12:39:05;93662.31;;;16.24;50.44
9277;BME280;4676;42.678;23.244;2023-03-31T12:41:42;93659.13;;;16.33;49.47
9277;BME280;4676;42.678;23.244;2023-03-31T12:44:27;93648.72;;;16.23;48.88
9277;BME280;4676;42.678;23.244;2023-03-31T12:47:12;93641.31;;;16.08;49.21
9277;BME280;4676;42.678;23.244;2023-03-31T12:49:55;93628.41;;;16.09;49.12
9277;BME280;4676;42.678;23.244;2023-03-31T12:52:29;93606.50;;;16.18;48.73
9277;BME280;4676;42.678;23.244;2023-03-31T12:55:22;93618.06;;;16.47;49.22
9277;BME280;4676;42.678;23.244;2023-03-31T12:58:35;93609.16;;;16.53;48.81
9277;BME280;4676;42.678;23.244;2023-03-31T13:01:05;93607.63;;;16.50;48.18
9277;BME280;4676;42.678;23.244;2023-03-31T13:03:41;93599.19;;;16.61;48.56
9277;BME280;4676;42.678;23.244;2023-03-31T13:06:11;93596.38;;;16.76;47.33
9277;BME280;4676;42.678;23.244;2023-03-31T13:08:52;93576.47;;;17.04;47.51
9277;BME280;4676;42.678;23.244;2023-03-31T13:11:20;93583.31;;;17.03;47.88
9277;BME280;4676;42.678;23.244;2023-03-31T13:13:56;93570.00;;;17.22;47.63
9277;BME280;4676;42.678;23.244;2023-03-31T13:16:25;93562.19;;;17.12;47.40
9277;BME280;4676;42.678;23.244;2023-03-31T13:18:54;93559.63;;;17.12;46.98
9277;BME280;4676;42.678;23.244;2023-03-31T13:21:22;93547.34;;;16.93;47.67
9277;BME280;4676;42.678;23.244;2023-03-31T13:23:49;93533.09;;;16.67;48.62
9277;BME280;4676;42.678;23.244;2023-03-31T13:26:34;93539.66;;;16.59;47.45
9277;BME280;4676;42.678;23.244;2023-03-31T13:29:23;93530.31;;;16.70;48.19
9277;BME280;4676;42.678;23.244;2023-03-31T13:32:24;93519.50;;;16.78;46.95
9277;BME280;4676;42.678;23.244;2023-03-31T13:34:58;93510.78;;;16.80;48.16
9277;BME280;4676;42.678;23.244;2023-03-31T13:37:51;93511.97;;;16.87;48.09
9277;BME280;4676;42.678;23.244;2023-03-31T13:46:46;93498.88;;;16.68;49.06
9277;BME280;4676;42.678;23.244;2023-03-31T13:52:36;93489.81;;;16.17;49.44
9277;BME280;4676;42.678;23.244;2023-03-31T13:55:16;93484.16;;;16.24;49.85
9277;BME280;4676;42.678;23.244;2023-03-31T14:00:51;93472.47;;;16.68;48.69
9277;BME280;4676;42.678;23.244;2023-03-31T14:03:51;93471.84;;;16.88;48.36